sensor_id;sensor_type;location;lat;lon;timestamp;P1;durP1;ratioP1;P2;durP2;ratioP2
18796;SDS011;9526;52.612;13.300;2023-11-21T00:00:31;12.55;;;6.07;;
18796;SDS011;9526;52.612;13.300;2023-11-21T00:02:55;18.33;;;6.55;;
18796;SDS011;9526;52.612;13.300;2023-11-21T00:05:19;13.90;;;6.00;;
18796;SDS011;9526;52.612;13.300;2023-11-21T00:07:45;14.20;;;6.25;;
18796;SDS011;9526;52.612;13.300;2023-11-21T00:10:11;16.00;;;6.57;;
18796;SDS011;9526;52.612;13.300;2023-11-21T00:12:38;16.30;;;6.80;;
18796;SDS011;9526;52.612;13.300;2023-11-21T00:15:04;15.60;;;6.63;;
18796;SDS011;9526;52.612;13.300;2023-11-21T00:17:33;16.95;;;6.72;;
18796;SDS011;9526;52.612;13.300;2023-11-21T00:19:57;17.23;;;6.80;;
18796;SDS011;9526;52.612;13.300;2023-11-21T00:22:21;15.18;;;6.80;;
18796;SDS011;9526;52.612;13.300;2023-11-21T00:24:45;19.58;;;6.90;;
18796;SDS011;9526;52.612;13.300;2023-11-21T00:27:10;14.85;;;6.68;;
18796;SDS011;9526;52.612;13.300;2023-11-21T00:29:34;14.45;;;5.82;;
18796;SDS011;9526;52.612;13.300;2023-11-21T00:31:58;14.60;;;6.53;;
18796;SDS011;9526;52.612;13.300;2023-11-21T00:34:21;16.75;;;6.95;;
18796;SDS011;9526;52.612;13.300;2023-11-21T00:36:45;14.68;;;6.25;;
18796;SDS011;9526;52.612;13.300;2023-11-21T00:39:09;14.77;;;6.32;;
18796;SDS011;9526;52.612;13.300;2023-11-21T00:41:34;14.35;;;6.57;;
18796;SDS011;9526;52.612;13.300;2023-11-21T00:43:59;20.00;;;7.43;;
18796;SDS011;9526;52.612;13.300;2023-11-21T00:46:23;17.95;;;6.82;;
18796;SDS011;9526;52.612;13.300;2023-11-21T00:48:48;19.30;;;7.82;;
18796;SDS011;9526;52.612;13.300;2023-11-21T00:51:12;21.50;;;7.93;;
18796;SDS011;9526;52.612;13.300;2023-11-21T00:53:36;19.30;;;7.75;;
18796;SDS011;9526;52.612;13.300;2023-11-21T00:55:59;20.10;;;7.80;;
18796;SDS011;9526;52.612;13.300;2023-11-21T00:58:24;19.35;;;7.70;;
18796;SDS011;9526;52.612;13.300;2023-11-21T01:00:49;20.35;;;8.32;;
18796;SDS011;9526;52.612;13.300;2023-11-21T01:03:13;21.42;;;7.70;;
18796;SDS011;9526;52.612;13.300;2023-11-21T01:05:37;19.88;;;7.88;;
18796;SDS011;9526;52.612;13.300;2023-11-21T01:08:01;23.90;;;8.80;;
18796;SDS011;9526;52.612;13.300;2023-11-21T01:10:24;24.02;;;8.63;;
18796;SDS011;9526;52.612;13.300;2023-11-21T01:12:48;23.73;;;9.13;;
18796;SDS011;9526;52.612;13.300;2023-11-21T01:15:12;21.17;;;8.95;;
18796;SDS011;9526;52.612;13.300;2023-11-21T01:17:38;28.13;;;8.25;;
18796;SDS011;9526;52.612;13.300;2023-11-21T01:20:03;16.95;;;7.93;;
18796;SDS011;9526;52.612;13.300;2023-11-21T01:22:34;24.42;;;8.38;;
18796;SDS011;9526;52.612;13.300;2023-11-21T01:24:58;19.27;;;7.95;;
18796;SDS011;9526;52.612;13.300;2023-11-21T01:27:21;16.60;;;7.38;;
18796;SDS011;9526;52.612;13.300;2023-11-21T01:29:46;16.67;;;6.93;;
18796;SDS011;9526;52.612;13.300;2023-11-21T01:32:10;12.02;;;6.10;;
18796;SDS011;9526;52.612;13.300;2023-11-21T01:34:35;15.18;;;6.40;;
18796;SDS011;9526;52.612;13.300;2023-11-21T01:36:59;12.10;;;6.53;;
18796;SDS011;9526;52.612;13.300;2023-11-21T01:39:26;12.43;;;6.30;;
18796;SDS011;9526;52.612;13.300;2023-11-21T01:41:50;13.50;;;6.13;;
18796;SDS011;9526;52.612;13.300;2023-11-21T01:44:14;11.27;;;6.20;;
18796;SDS011;9526;52.612;13.300;2023-11-21T01:46:38;12.07;;;6.00;;
18796;SDS011;9526;52.612;13.300;2023-11-21T01:49:03;11.52;;;6.13;;
18796;SDS011;9526;52.612;13.300;2023-11-21T01:51:29;10.68;;;6.40;;
18796;SDS011;9526;52.612;13.300;2023-11-21T01:53:53;10.35;;;5.72;;
18796;SDS011;9526;52.612;13.300;2023-11-21T01:56:16;11.00;;;6.03;;
18796;SDS011;9526;52.612;13.300;2023-11-21T01:58:40;12.45;;;5.90;;
18796;SDS011;9526;52.612;13.300;2023-11-21T02:01:05;10.15;;;6.05;;
18796;SDS011;9526;52.612;13.300;2023-11-21T02:03:30;10.82;;;6.05;;
18796;SDS011;9526;52.612;13.300;2023-11-21T02:05:54;11.73;;;6.00;;
18796;SDS011;9526;52.612;13.300;2023-11-21T02:08:19;12.02;;;6.25;;
18796;SDS011;9526;52.612;13.300;2023-11-21T02:10:43;12.20;;;6.40;;
18796;SDS011;9526;52.612;13.300;2023-11-21T02:13:08;14.30;;;6.88;;
18796;SDS011;9526;52.612;13.300;2023-11-21T02:15:33;12.80;;;6.03;;
18796;SDS011;9526;52.612;13.300;2023-11-21T02:18:01;14.30;;;7.00;;
18796;SDS011;9526;52.612;13.300;2023-11-21T02:20:26;13.25;;;7.07;;
18796;SDS011;9526;52.612;13.300;2023-11-21T02:22:53;12.20;;;6.70;;
18796;SDS011;9526;52.612;13.300;2023-11-21T02:25:21;14.23;;;6.75;;
18796;SDS011;9526;52.612;13.300;2023-11-21T02:27:45;11.80;;;6.38;;
18796;SDS011;9526;52.612;13.300;2023-11-21T02:30:11;14.75;;;7.18;;
18796;SDS011;9526;52.612;13.300;2023-11-21T02:32:36;13.38;;;6.90;;
18796;SDS011;9526;52.612;13.300;2023-11-21T02:35:10;14.15;;;7.32;;
18796;SDS011;9526;52.612;13.300;2023-11-21T02:37:33;13.50;;;6.70;;
18796;SDS011;9526;52.612;13.300;2023-11-21T02:40:00;18.20;;;7.10;;
18796;SDS011;9526;52.612;13.300;2023-11-21T02:42:28;14.20;;;7.22;;
18796;SDS011;9526;52.612;13.300;2023-11-21T02:44:51;14.60;;;7.05;;
18796;SDS011;9526;52.612;13.300;2023-11-21T02:47:15;12.80;;;7.03;;
18796;SDS011;9526;52.612;13.300;2023-11-21T02:49:39;14.52;;;7.10;;
18796;SDS011;9526;52.612;13.300;2023-11-21T02:52:04;13.82;;;6.68;;
18796;SDS011;9526;52.612;13.300;2023-11-21T02:54:28;14.27;;;7.40;;
18796;SDS011;9526;52.612;13.300;2023-11-21T02:56:55;15.75;;;8.10;;
18796;SDS011;9526;52.612;13.300;2023-11-21T02:59:18;13.80;;;7.30;;
18796;SDS011;9526;52.612;13.300;2023-11-21T03:01:42;14.13;;;7.50;;
18796;SDS011;9526;52.612;13.300;2023-11-21T03:04:06;12.57;;;7.15;;
18796;SDS011;9526;52.612;13.300;2023-11-21T03:06:30;15.70;;;7.30;;
18796;SDS011;9526;52.612;13.300;2023-11-21T03:08:53;14.02;;;7.47;;
18796;SDS011;9526;52.612;13.300;2023-11-21T03:11:17;15.63;;;7.40;;
18796;SDS011;9526;52.612;13.300;2023-11-21T03:13:42;16.05;;;7.50;;
18796;SDS011;9526;52.612;13.300;2023-11-21T03:16:07;16.35;;;6.85;;
18796;SDS011;9526;52.612;13.300;2023-11-21T03:18:32;14.95;;;6.90;;
18796;SDS011;9526;52.612;13.300;2023-11-21T03:20:56;12.48;;;6.93;;
18796;SDS011;9526;52.612;13.300;2023-11-21T03:23:20;15.63;;;7.22;;
18796;SDS011;9526;52.612;13.300;2023-11-21T03:25:44;13.07;;;7.20;;
18796;SDS011;9526;52.612;13.300;2023-11-21T03:28:09;17.27;;;7.75;;
18796;SDS011;9526;52.612;13.300;2023-11-21T03:30:34;16.20;;;7.38;;
18796;SDS011;9526;52.612;13.300;2023-11-21T03:32:58;14.63;;;7.25;;
18796;SDS011;9526;52.612;13.300;2023-11-21T03:35:21;14.52;;;7.05;;
18796;SDS011;9526;52.612;13.300;2023-11-21T03:37:46;14.95;;;7.28;;
18796;SDS011;9526;52.612;13.300;2023-11-21T03:40:10;14.40;;;7.45;;
18796;SDS011;9526;52.612;13.300;2023-11-21T03:42:34;14.57;;;7.05;;
18796;SDS011;9526;52.612;13.300;2023-11-21T03:44:58;16.25;;;7.80;;
18796;SDS011;9526;52.612;13.300;2023-11-21T03:47:23;14.02;;;7.70;;
18796;SDS011;9526;52.612;13.300;2023-11-21T03:49:48;15.05;;;6.82;;
18796;SDS011;9526;52.612;13.300;2023-11-21T03:52:12;14.63;;;7.40;;
18796;SDS011;9526;52.612;13.300;2023-11-21T03:54:35;14.63;;;7.68;;
18796;SDS011;9526;52.612;13.300;2023-11-21T03:57:01;14.32;;;7.15;;
18796;SDS011;9526;52.612;13.300;2023-11-21T03:59:25;15.60;;;7.57;;
18796;SDS011;9526;52.612;13.300;2023-11-21T04:01:49;15.38;;;7.82;;
18796;SDS011;9526;52.612;13.300;2023-11-21T04:04:15;17.13;;;8.15;;
18796;SDS011;9526;52.612;13.300;2023-11-21T04:06:39;15.70;;;7.75;;
18796;SDS011;9526;52.612;13.300;2023-11-21T04:09:04;16.48;;;7.80;;
18796;SDS011;9526;52.612;13.300;2023-11-21T04:11:28;15.75;;;7.57;;
18796;SDS011;9526;52.612;13.300;2023-11-21T04:13:53;13.95;;;7.53;;
18796;SDS011;9526;52.612;13.300;2023-11-21T04:16:17;14.00;;;7.05;;
18796;SDS011;9526;52.612;13.300;2023-11-21T04:18:42;15.32;;;7.60;;
18796;SDS011;9526;52.612;13.300;2023-11-21T04:21:07;15.20;;;7.95;;
18796;SDS011;9526;52.612;13.300;2023-11-21T04:23:31;15.98;;;8.27;;
18796;SDS011;9526;52.612;13.300;2023-11-21T04:25:55;15.63;;;7.82;;
18796;SDS011;9526;52.612;13.300;2023-11-21T04:28:19;15.73;;;7.72;;
18796;SDS011;9526;52.612;13.300;2023-11-21T04:30:43;17.67;;;7.82;;
18796;SDS011;9526;52.612;13.300;2023-11-21T04:33:07;15.32;;;7.90;;
18796;SDS011;9526;52.612;13.300;2023-11-21T04:35:30;16.48;;;7.90;;
18796;SDS011;9526;52.612;13.300;2023-11-21T04:37:55;15.63;;;7.85;;
18796;SDS011;9526;52.612;13.300;2023-11-21T04:40:19;16.67;;;6.75;;
18796;SDS011;9526;52.612;13.300;2023-11-21T04:42:43;15.40;;;7.70;;
18796;SDS011;9526;52.612;13.300;2023-11-21T04:45:08;16.90;;;8.23;;
18796;SDS011;9526;52.612;13.300;2023-11-21T04:47:34;15.63;;;7.75;;
18796;SDS011;9526;52.612;13.300;2023-11-21T04:49:59;16.70;;;7.68;;
18796;SDS011;9526;52.612;13.300;2023-11-21T04:52:24;14.50;;;7.30;;
18796;SDS011;9526;52.612;13.300;2023-11-21T04:54:59;15.55;;;7.25;;
18796;SDS011;9526;52.612;13.300;2023-11-21T04:57:34;15.68;;;7.15;;
18796;SDS011;9526;52.612;13.300;2023-11-21T04:59:59;13.98;;;6.97;;
18796;SDS011;9526;52.612;13.300;2023-11-21T05:02:27;16.15;;;7.35;;
18796;SDS011;9526;52.612;13.300;2023-11-21T05:04:57;14.35;;;7.03;;
18796;SDS011;9526;52.612;13.300;2023-11-21T05:07:21;15.27;;;7.03;;
18796;SDS011;9526;52.612;13.300;2023-11-21T05:09:56;15.30;;;6.68;;
18796;SDS011;9526;52.612;13.300;2023-11-21T05:12:21;12.32;;;6.70;;
18796;SDS011;9526;52.612;13.300;2023-11-21T05:14:45;14.18;;;6.97;;
18796;SDS011;9526;52.612;13.300;2023-11-21T05:17:10;17.58;;;7.88;;
18796;SDS011;9526;52.612;13.300;2023-11-21T05:19:34;13.85;;;7.18;;
18796;SDS011;9526;52.612;13.300;2023-11-21T05:21:59;15.93;;;7.75;;
18796;SDS011;9526;52.612;13.300;2023-11-21T05:24:23;16.65;;;7.70;;
18796;SDS011;9526;52.612;13.300;2023-11-21T05:26:49;12.63;;;6.63;;
18796;SDS011;9526;52.612;13.300;2023-11-21T05:29:13;14.07;;;7.45;;
18796;SDS011;9526;52.612;13.300;2023-11-21T05:31:42;14.50;;;7.40;;
18796;SDS011;9526;52.612;13.300;2023-11-21T05:34:06;15.07;;;7.20;;
18796;SDS011;9526;52.612;13.300;2023-11-21T05:36:30;14.77;;;7.22;;
18796;SDS011;9526;52.612;13.300;2023-11-21T05:38:54;15.52;;;7.45;;
18796;SDS011;9526;52.612;13.300;2023-11-21T05:41:18;15.02;;;7.20;;
18796;SDS011;9526;52.612;13.300;2023-11-21T05:43:43;13.82;;;6.55;;
18796;SDS011;9526;52.612;13.300;2023-11-21T05:46:07;13.93;;;6.95;;
18796;SDS011;9526;52.612;13.300;2023-11-21T05:48:31;16.05;;;7.22;;
18796;SDS011;9526;52.612;13.300;2023-11-21T05:50:55;12.88;;;6.10;;
18796;SDS011;9526;52.612;13.300;2023-11-21T05:53:18;12.05;;;6.10;;
18796;SDS011;9526;52.612;13.300;2023-11-21T05:55:43;16.30;;;6.47;;
18796;SDS011;9526;52.612;13.300;2023-11-21T05:58:07;15.70;;;6.30;;
18796;SDS011;9526;52.612;13.300;2023-11-21T06:00:32;10.55;;;5.90;;
18796;SDS011;9526;52.612;13.300;2023-11-21T06:02:56;10.70;;;5.88;;
18796;SDS011;9526;52.612;13.300;2023-11-21T06:05:21;11.57;;;5.78;;
18796;SDS011;9526;52.612;13.300;2023-11-21T06:07:48;13.27;;;5.88;;
18796;SDS011;9526;52.612;13.300;2023-11-21T06:10:12;10.32;;;5.40;;
18796;SDS011;9526;52.612;13.300;2023-11-21T06:12:36;11.13;;;5.63;;
18796;SDS011;9526;52.612;13.300;2023-11-21T06:15:02;10.10;;;5.22;;
18796;SDS011;9526;52.612;13.300;2023-11-21T06:17:28;10.70;;;4.85;;
18796;SDS011;9526;52.612;13.300;2023-11-21T06:19:52;12.32;;;5.07;;
18796;SDS011;9526;52.612;13.300;2023-11-21T06:22:16;8.77;;;4.82;;
18796;SDS011;9526;52.612;13.300;2023-11-21T06:24:40;9.52;;;4.90;;
18796;SDS011;9526;52.612;13.300;2023-11-21T06:27:04;8.25;;;4.00;;
18796;SDS011;9526;52.612;13.300;2023-11-21T06:29:28;8.67;;;4.47;;
18796;SDS011;9526;52.612;13.300;2023-11-21T06:31:53;9.50;;;4.80;;
18796;SDS011;9526;52.612;13.300;2023-11-21T06:34:19;9.88;;;4.65;;
18796;SDS011;9526;52.612;13.300;2023-11-21T06:36:44;11.73;;;4.90;;
18796;SDS011;9526;52.612;13.300;2023-11-21T06:39:09;7.93;;;3.88;;
18796;SDS011;9526;52.612;13.300;2023-11-21T06:41:33;9.73;;;4.30;;
18796;SDS011;9526;52.612;13.300;2023-11-21T06:44:00;7.65;;;4.30;;
18796;SDS011;9526;52.612;13.300;2023-11-21T06:46:28;8.75;;;4.47;;
18796;SDS011;9526;52.612;13.300;2023-11-21T06:49:05;10.80;;;4.68;;
18796;SDS011;9526;52.612;13.300;2023-11-21T06:51:31;9.70;;;4.45;;
18796;SDS011;9526;52.612;13.300;2023-11-21T06:53:56;7.95;;;3.67;;
18796;SDS011;9526;52.612;13.300;2023-11-21T06:56:23;7.97;;;4.20;;
18796;SDS011;9526;52.612;13.300;2023-11-21T06:59:02;7.35;;;3.47;;
18796;SDS011;9526;52.612;13.300;2023-11-21T07:01:44;6.93;;;4.10;;
18796;SDS011;9526;52.612;13.300;2023-11-21T07:04:08;7.00;;;3.70;;
18796;SDS011;9526;52.612;13.300;2023-11-21T07:06:33;7.82;;;3.58;;
18796;SDS011;9526;52.612;13.300;2023-11-21T07:08:58;9.30;;;3.80;;
18796;SDS011;9526;52.612;13.300;2023-11-21T07:11:22;7.53;;;3.65;;
18796;SDS011;9526;52.612;13.300;2023-11-21T07:13:47;7.40;;;3.88;;
18796;SDS011;9526;52.612;13.300;2023-11-21T07:16:11;8.10;;;3.85;;
18796;SDS011;9526;52.612;13.300;2023-11-21T07:18:37;9.45;;;4.30;;
18796;SDS011;9526;52.612;13.300;2023-11-21T07:21:02;7.65;;;3.58;;
18796;SDS011;9526;52.612;13.300;2023-11-21T07:23:32;5.95;;;3.50;;
18796;SDS011;9526;52.612;13.300;2023-11-21T07:25:56;6.07;;;3.38;;
18796;SDS011;9526;52.612;13.300;2023-11-21T07:28:20;8.88;;;3.42;;
18796;SDS011;9526;52.612;13.300;2023-11-21T07:30:44;7.35;;;3.40;;
18796;SDS011;9526;52.612;13.300;2023-11-21T07:33:10;6.75;;;3.28;;
18796;SDS011;9526;52.612;13.300;2023-11-21T07:35:34;6.15;;;3.20;;
18796;SDS011;9526;52.612;13.300;2023-11-21T07:37:58;6.78;;;3.65;;
18796;SDS011;9526;52.612;13.300;2023-11-21T07:40:24;6.45;;;3.53;;
18796;SDS011;9526;52.612;13.300;2023-11-21T07:42:55;5.90;;;3.55;;
18796;SDS011;9526;52.612;13.300;2023-11-21T07:45:22;5.18;;;3.08;;
18796;SDS011;9526;52.612;13.300;2023-11-21T07:47:49;6.28;;;3.22;;
18796;SDS011;9526;52.612;13.300;2023-11-21T07:50:14;8.60;;;4.10;;
18796;SDS011;9526;52.612;13.300;2023-11-21T07:52:39;7.28;;;3.95;;
18796;SDS011;9526;52.612;13.300;2023-11-21T07:55:03;7.75;;;3.95;;
18796;SDS011;9526;52.612;13.300;2023-11-21T07:57:30;9.63;;;4.82;;
18796;SDS011;9526;52.612;13.300;2023-11-21T07:59:54;9.80;;;4.28;;
18796;SDS011;9526;52.612;13.300;2023-11-21T08:02:18;6.63;;;3.65;;
18796;SDS011;9526;52.612;13.300;2023-11-21T08:04:43;6.63;;;3.90;;
18796;SDS011;9526;52.612;13.300;2023-11-21T08:07:07;9.07;;;3.65;;
18796;SDS011;9526;52.612;13.300;2023-11-21T08:09:31;7.15;;;3.33;;
18796;SDS011;9526;52.612;13.300;2023-11-21T08:11:56;7.32;;;3.75;;
18796;SDS011;9526;52.612;13.300;2023-11-21T08:14:23;7.43;;;4.28;;
18796;SDS011;9526;52.612;13.300;2023-11-21T08:16:48;6.55;;;3.80;;
18796;SDS011;9526;52.612;13.300;2023-11-21T08:19:11;8.23;;;3.92;;
18796;SDS011;9526;52.612;13.300;2023-11-21T08:21:35;9.27;;;4.30;;
18796;SDS011;9526;52.612;13.300;2023-11-21T08:24:01;7.70;;;3.70;;
18796;SDS011;9526;52.612;13.300;2023-11-21T08:26:26;7.63;;;3.58;;
18796;SDS011;9526;52.612;13.300;2023-11-21T08:28:49;7.35;;;4.18;;
18796;SDS011;9526;52.612;13.300;2023-11-21T08:31:16;10.38;;;3.72;;
18796;SDS011;9526;52.612;13.300;2023-11-21T08:33:39;8.07;;;3.93;;
18796;SDS011;9526;52.612;13.300;2023-11-21T08:36:06;7.38;;;3.80;;
18796;SDS011;9526;52.612;13.300;2023-11-21T08:38:32;6.30;;;3.50;;
18796;SDS011;9526;52.612;13.300;2023-11-21T08:40:57;7.78;;;3.55;;
18796;SDS011;9526;52.612;13.300;2023-11-21T08:43:21;5.88;;;3.28;;
18796;SDS011;9526;52.612;13.300;2023-11-21T08:45:46;5.82;;;3.00;;
18796;SDS011;9526;52.612;13.300;2023-11-21T08:48:11;5.40;;;2.88;;
18796;SDS011;9526;52.612;13.300;2023-11-21T08:50:35;7.82;;;3.50;;
18796;SDS011;9526;52.612;13.300;2023-11-21T08:52:58;4.68;;;2.88;;
18796;SDS011;9526;52.612;13.300;2023-11-21T08:55:23;5.72;;;3.13;;
18796;SDS011;9526;52.612;13.300;2023-11-21T08:57:46;6.22;;;3.42;;
18796;SDS011;9526;52.612;13.300;2023-11-21T09:00:10;5.78;;;3.00;;
18796;SDS011;9526;52.612;13.300;2023-11-21T09:02:37;5.78;;;2.95;;
18796;SDS011;9526;52.612;13.300;2023-11-21T09:05:05;6.32;;;3.30;;
18796;SDS011;9526;52.612;13.300;2023-11-21T09:07:33;6.20;;;3.17;;
18796;SDS011;9526;52.612;13.300;2023-11-21T09:09:57;5.40;;;2.95;;
18796;SDS011;9526;52.612;13.300;2023-11-21T09:12:22;5.68;;;3.05;;
18796;SDS011;9526;52.612;13.300;2023-11-21T09:14:51;6.72;;;3.53;;
18796;SDS011;9526;52.612;13.300;2023-11-21T09:17:15;6.13;;;3.15;;
18796;SDS011;9526;52.612;13.300;2023-11-21T09:19:39;6.57;;;3.35;;
18796;SDS011;9526;52.612;13.300;2023-11-21T09:22:06;7.57;;;3.47;;
18796;SDS011;9526;52.612;13.300;2023-11-21T09:24:31;8.98;;;3.60;;
18796;SDS011;9526;52.612;13.300;2023-11-21T09:26:55;6.20;;;3.33;;
18796;SDS011;9526;52.612;13.300;2023-11-21T09:29:19;6.07;;;3.53;;
18796;SDS011;9526;52.612;13.300;2023-11-21T09:31:43;8.93;;;3.92;;
18796;SDS011;9526;52.612;13.300;2023-11-21T09:34:07;8.70;;;4.30;;
18796;SDS011;9526;52.612;13.300;2023-11-21T09:36:32;8.07;;;4.05;;
18796;SDS011;9526;52.612;13.300;2023-11-21T09:38:57;8.68;;;4.90;;
18796;SDS011;9526;52.612;13.300;2023-11-21T09:41:23;8.35;;;4.00;;
18796;SDS011;9526;52.612;13.300;2023-11-21T09:43:58;9.02;;;3.70;;
18796;SDS011;9526;52.612;13.300;2023-11-21T09:46:22;14.98;;;3.90;;
18796;SDS011;9526;52.612;13.300;2023-11-21T09:48:50;6.68;;;3.28;;
18796;SDS011;9526;52.612;13.300;2023-11-21T09:51:14;7.13;;;3.63;;
18796;SDS011;9526;52.612;13.300;2023-11-21T09:53:39;8.48;;;3.85;;
18796;SDS011;9526;52.612;13.300;2023-11-21T09:56:09;7.75;;;3.85;;
18796;SDS011;9526;52.612;13.300;2023-11-21T09:58:32;9.03;;;4.53;;
18796;SDS011;9526;52.612;13.300;2023-11-21T10:00:57;8.53;;;3.90;;
18796;SDS011;9526;52.612;13.300;2023-11-21T10:03:24;7.55;;;3.65;;
18796;SDS011;9526;52.612;13.300;2023-11-21T10:05:48;8.60;;;3.85;;
18796;SDS011;9526;52.612;13.300;2023-11-21T10:08:14;8.85;;;4.45;;
18796;SDS011;9526;52.612;13.300;2023-11-21T10:10:38;9.20;;;4.80;;
18796;SDS011;9526;52.612;13.300;2023-11-21T10:13:09;7.45;;;3.90;;
18796;SDS011;9526;52.612;13.300;2023-11-21T10:15:39;9.07;;;4.28;;
18796;SDS011;9526;52.612;13.300;2023-11-21T10:18:10;13.53;;;4.83;;
18796;SDS011;9526;52.612;13.300;2023-11-21T10:20:36;7.07;;;3.45;;
18796;SDS011;9526;52.612;13.300;2023-11-21T10:23:00;9.43;;;4.00;;
18796;SDS011;9526;52.612;13.300;2023-11-21T10:25:25;9.77;;;4.20;;
18796;SDS011;9526;52.612;13.300;2023-11-21T10:27:49;8.80;;;4.43;;
18796;SDS011;9526;52.612;13.300;2023-11-21T10:30:14;9.13;;;4.30;;
18796;SDS011;9526;52.612;13.300;2023-11-21T10:32:39;8.85;;;4.40;;
18796;SDS011;9526;52.612;13.300;2023-11-21T10:35:03;10.55;;;4.50;;
18796;SDS011;9526;52.612;13.300;2023-11-21T10:37:31;10.90;;;4.75;;
18796;SDS011;9526;52.612;13.300;2023-11-21T10:39:57;9.27;;;4.15;;
18796;SDS011;9526;52.612;13.300;2023-11-21T10:42:21;8.38;;;4.65;;
18796;SDS011;9526;52.612;13.300;2023-11-21T10:44:46;13.90;;;5.80;;
18796;SDS011;9526;52.612;13.300;2023-11-21T10:47:11;11.18;;;4.90;;
18796;SDS011;9526;52.612;13.300;2023-11-21T10:49:37;9.77;;;4.57;;
18796;SDS011;9526;52.612;13.300;2023-11-21T10:52:02;12.82;;;5.25;;
18796;SDS011;9526;52.612;13.300;2023-11-21T10:54:26;11.33;;;4.97;;
18796;SDS011;9526;52.612;13.300;2023-11-21T10:56:55;10.68;;;4.13;;
18796;SDS011;9526;52.612;13.300;2023-11-21T10:59:22;8.48;;;4.18;;
18796;SDS011;9526;52.612;13.300;2023-11-21T11:01:47;10.10;;;3.83;;
18796;SDS011;9526;52.612;13.300;2023-11-21T11:04:15;12.05;;;4.60;;
18796;SDS011;9526;52.612;13.300;2023-11-21T11:06:43;6.20;;;2.83;;
18796;SDS011;9526;52.612;13.300;2023-11-21T11:09:07;11.68;;;4.72;;
18796;SDS011;9526;52.612;13.300;2023-11-21T11:11:34;9.38;;;4.00;;
18796;SDS011;9526;52.612;13.300;2023-11-21T11:14:00;8.38;;;4.10;;
18796;SDS011;9526;52.612;13.300;2023-11-21T11:16:24;11.50;;;4.43;;
18796;SDS011;9526;52.612;13.300;2023-11-21T11:18:50;9.43;;;4.53;;
18796;SDS011;9526;52.612;13.300;2023-11-21T11:21:23;9.80;;;4.22;;
18796;SDS011;9526;52.612;13.300;2023-11-21T11:24:07;8.75;;;3.75;;
18796;SDS011;9526;52.612;13.300;2023-11-21T11:26:51;8.98;;;3.70;;
18796;SDS011;9526;52.612;13.300;2023-11-21T11:29:23;12.18;;;4.25;;
18796;SDS011;9526;52.612;13.300;2023-11-21T11:32:00;9.40;;;4.10;;
18796;SDS011;9526;52.612;13.300;2023-11-21T11:34:36;14.27;;;4.85;;
18796;SDS011;9526;52.612;13.300;2023-11-21T11:37:06;9.77;;;4.00;;
18796;SDS011;9526;52.612;13.300;2023-11-21T11:39:31;11.40;;;4.27;;
18796;SDS011;9526;52.612;13.300;2023-11-21T11:41:59;13.13;;;4.68;;
18796;SDS011;9526;52.612;13.300;2023-11-21T11:47:14;8.98;;;4.78;;
18796;SDS011;9526;52.612;13.300;2023-11-21T11:49:54;11.27;;;4.88;;
18796;SDS011;9526;52.612;13.300;2023-11-21T11:52:34;12.77;;;5.20;;
18796;SDS011;9526;52.612;13.300;2023-11-21T11:55:00;9.80;;;4.93;;
18796;SDS011;9526;52.612;13.300;2023-11-21T11:57:25;12.20;;;5.05;;
18796;SDS011;9526;52.612;13.300;2023-11-21T12:00:06;10.40;;;4.60;;
18796;SDS011;9526;52.612;13.300;2023-11-21T12:02:38;13.57;;;5.20;;
18796;SDS011;9526;52.612;13.300;2023-11-21T12:05:06;13.48;;;5.07;;
18796;SDS011;9526;52.612;13.300;2023-11-21T12:07:40;16.60;;;4.88;;
18796;SDS011;9526;52.612;13.300;2023-11-21T12:10:10;10.57;;;4.22;;
18796;SDS011;9526;52.612;13.300;2023-11-21T12:12:41;18.83;;;5.00;;
18796;SDS011;9526;52.612;13.300;2023-11-21T12:15:07;9.27;;;4.28;;
18796;SDS011;9526;52.612;13.300;2023-11-21T12:17:31;16.35;;;4.32;;
18796;SDS011;9526;52.612;13.300;2023-11-21T12:20:01;8.07;;;4.10;;
18796;SDS011;9526;52.612;13.300;2023-11-21T12:22:27;9.05;;;3.85;;
18796;SDS011;9526;52.612;13.300;2023-11-21T12:24:53;8.05;;;4.20;;
18796;SDS011;9526;52.612;13.300;2023-11-21T12:27:20;8.45;;;3.78;;
18796;SDS011;9526;52.612;13.300;2023-11-21T12:29:44;7.80;;;3.97;;
18796;SDS011;9526;52.612;13.300;2023-11-21T12:32:08;9.37;;;4.07;;
18796;SDS011;9526;52.612;13.300;2023-11-21T12:34:32;11.87;;;4.73;;
18796;SDS011;9526;52.612;13.300;2023-11-21T12:36:56;13.65;;;5.95;;
18796;SDS011;9526;52.612;13.300;2023-11-21T12:39:21;14.80;;;5.55;;
18796;SDS011;9526;52.612;13.300;2023-11-21T12:41:46;12.52;;;5.50;;
18796;SDS011;9526;52.612;13.300;2023-11-21T12:44:11;13.38;;;6.43;;
18796;SDS011;9526;52.612;13.300;2023-11-21T12:46:40;12.07;;;5.65;;
18796;SDS011;9526;52.612;13.300;2023-11-21T12:49:07;10.35;;;5.25;;
18796;SDS011;9526;52.612;13.300;2023-11-21T12:51:31;10.32;;;5.20;;
18796;SDS011;9526;52.612;13.300;2023-11-21T12:53:56;10.70;;;5.43;;
18796;SDS011;9526;52.612;13.300;2023-11-21T12:56:21;11.55;;;5.25;;
18796;SDS011;9526;52.612;13.300;2023-11-21T12:58:47;13.40;;;6.20;;
18796;SDS011;9526;52.612;13.300;2023-11-21T13:01:13;11.55;;;5.78;;
18796;SDS011;9526;52.612;13.300;2023-11-21T13:03:40;11.70;;;5.97;;
18796;SDS011;9526;52.612;13.300;2023-11-21T13:06:07;14.40;;;6.55;;
18796;SDS011;9526;52.612;13.300;2023-11-21T13:08:32;19.05;;;7.57;;
18796;SDS011;9526;52.612;13.300;2023-11-21T13:10:56;16.10;;;7.88;;
18796;SDS011;9526;52.612;13.300;2023-11-21T13:13:21;18.23;;;8.23;;
18796;SDS011;9526;52.612;13.300;2023-11-21T13:15:48;21.43;;;8.83;;
18796;SDS011;9526;52.612;13.300;2023-11-21T13:18:14;25.23;;;9.50;;
18796;SDS011;9526;52.612;13.300;2023-11-21T13:20:39;25.10;;;9.55;;
18796;SDS011;9526;52.612;13.300;2023-11-21T13:23:07;24.48;;;9.70;;
18796;SDS011;9526;52.612;13.300;2023-11-21T13:25:33;26.08;;;10.95;;
18796;SDS011;9526;52.612;13.300;2023-11-21T13:27:58;28.90;;;11.73;;
18796;SDS011;9526;52.612;13.300;2023-11-21T13:30:24;31.58;;;11.02;;
18796;SDS011;9526;52.612;13.300;2023-11-21T13:32:50;29.53;;;11.80;;
18796;SDS011;9526;52.612;13.300;2023-11-21T13:35:15;24.23;;;10.27;;
18796;SDS011;9526;52.612;13.300;2023-11-21T13:37:43;24.30;;;10.65;;
18796;SDS011;9526;52.612;13.300;2023-11-21T13:40:07;20.83;;;9.50;;
18796;SDS011;9526;52.612;13.300;2023-11-21T13:42:36;20.35;;;9.50;;
18796;SDS011;9526;52.612;13.300;2023-11-21T13:44:59;19.70;;;8.57;;
18796;SDS011;9526;52.612;13.300;2023-11-21T13:47:24;23.00;;;9.83;;
18796;SDS011;9526;52.612;13.300;2023-11-21T13:49:52;19.45;;;8.30;;
18796;SDS011;9526;52.612;13.300;2023-11-21T13:52:16;31.60;;;11.10;;
18796;SDS011;9526;52.612;13.300;2023-11-21T13:54:44;28.20;;;10.27;;
18796;SDS011;9526;52.612;13.300;2023-11-21T13:57:09;31.95;;;11.95;;
18796;SDS011;9526;52.612;13.300;2023-11-21T13:59:32;30.97;;;11.63;;
18796;SDS011;9526;52.612;13.300;2023-11-21T14:01:58;28.38;;;11.75;;
18796;SDS011;9526;52.612;13.300;2023-11-21T14:04:39;30.93;;;12.27;;
18796;SDS011;9526;52.612;13.300;2023-11-21T14:07:18;35.73;;;13.10;;
18796;SDS011;9526;52.612;13.300;2023-11-21T14:09:57;31.57;;;13.43;;
18796;SDS011;9526;52.612;13.300;2023-11-21T14:12:22;34.50;;;12.50;;
18796;SDS011;9526;52.612;13.300;2023-11-21T14:14:46;30.67;;;14.23;;
18796;SDS011;9526;52.612;13.300;2023-11-21T14:17:10;34.23;;;13.43;;
18796;SDS011;9526;52.612;13.300;2023-11-21T14:19:34;38.13;;;15.20;;
18796;SDS011;9526;52.612;13.300;2023-11-21T14:22:02;30.77;;;13.83;;
18796;SDS011;9526;52.612;13.300;2023-11-21T14:24:27;31.70;;;13.37;;
18796;SDS011;9526;52.612;13.300;2023-11-21T14:26:54;32.87;;;14.33;;
18796;SDS011;9526;52.612;13.300;2023-11-21T14:29:18;27.50;;;12.47;;
18796;SDS011;9526;52.612;13.300;2023-11-21T14:31:42;25.40;;;11.10;;